sensor_id;sensor_type;location;lat;lon;timestamp;pressure;altitude;pressure_sealevel;temperature;humidity
13612;BME280;6877;51.436;6.774;2023-01-28T00:02:18;102420.97;;;1.66;85.51
13612;BME280;6877;51.436;6.774;2023-01-28T00:04:45;102430.19;;;1.60;85.25
13612;BME280;6877;51.436;6.774;2023-01-28T00:07:11;102426.00;;;1.62;84.80
13612;BME280;6877;51.436;6.774;2023-01-28T00:09:38;102428.44;;;1.59;85.01
13612;BME280;6877;51.436;6.774;2023-01-28T00:12:05;102424.88;;;1.57;84.93
13612;BME280;6877;51.436;6.774;2023-01-28T00:14:36;102425.56;;;1.53;85.19
13612;BME280;6877;51.436;6.774;2023-01-28T00:17:08;102427.28;;;1.53;85.31
13612;BME280;6877;51.436;6.774;2023-01-28T00:19:39;102425.44;;;1.50;84.98
13612;BME280;6877;51.436;6.774;2023-01-28T00:22:06;102420.13;;;1.47;84.92
13612;BME280;6877;51.436;6.774;2023-01-28T00:24:32;102419.34;;;1.48;84.19
13612;BME280;6877;51.436;6.774;2023-01-28T00:26:59;102417.41;;;1.44;84.57
13612;BME280;6877;51.436;6.774;2023-01-28T00:29:30;102433.63;;;1.42;84.43
13612;BME280;6877;51.436;6.774;2023-01-28T00:31:57;102431.00;;;1.40;84.35
13612;BME280;6877;51.436;6.774;2023-01-28T00:34:28;102431.72;;;1.37;84.76
13612;BME280;6877;51.436;6.774;2023-01-28T00:36:59;102434.25;;;1.36;84.84
13612;BME280;6877;51.436;6.774;2023-01-28T00:39:31;102436.00;;;1.37;84.82
13612;BME280;6877;51.436;6.774;2023-01-28T00:42:02;102439.41;;;1.36;84.76
13612;BME280;6877;51.436;6.774;2023-01-28T00:44:29;102436.69;;;1.33;85.09
13612;BME280;6877;51.436;6.774;2023-01-28T00:46:55;102431.44;;;1.31;85.27
13612;BME280;6877;51.436;6.774;2023-01-28T00:49:22;102422.88;;;1.32;85.34
13612;BME280;6877;51.436;6.774;2023-01-28T00:51:48;102428.03;;;1.32;85.78
13612;BME280;6877;51.436;6.774;2023-01-28T00:54:20;102425.56;;;1.34;85.12
13612;BME280;6877;51.436;6.774;2023-01-28T00:56:47;102433.19;;;1.32;85.24
13612;BME280;6877;51.436;6.774;2023-01-28T00:59:13;102425.28;;;1.28;85.46
13612;BME280;6877;51.436;6.774;2023-01-28T01:01:45;102427.84;;;1.28;85.48
13612;BME280;6877;51.436;6.774;2023-01-28T01:04:11;102433.88;;;1.28;85.95
13612;BME280;6877;51.436;6.774;2023-01-28T01:06:43;102433.00;;;1.28;85.76
13612;BME280;6877;51.436;6.774;2023-01-28T01:09:10;102434.72;;;1.27;85.80
13612;BME280;6877;51.436;6.774;2023-01-28T01:11:37;102440.59;;;1.25;85.83
13612;BME280;6877;51.436;6.774;2023-01-28T01:14:04;102432.81;;;1.23;85.93
13612;BME280;6877;51.436;6.774;2023-01-28T01:16:37;102428.53;;;1.24;85.58
13612;BME280;6877;51.436;6.774;2023-01-28T01:19:04;102427.56;;;1.22;85.38
13612;BME280;6877;51.436;6.774;2023-01-28T01:21:31;102425.81;;;1.21;85.92
13612;BME280;6877;51.436;6.774;2023-01-28T01:23:57;102423.22;;;1.21;85.87
13612;BME280;6877;51.436;6.774;2023-01-28T01:26:29;102427.50;;;1.20;86.35
13612;BME280;6877;51.436;6.774;2023-01-28T01:29:00;102423.97;;;1.18;86.09
13612;BME280;6877;51.436;6.774;2023-01-28T01:31:27;102419.69;;;1.19;86.35
13612;BME280;6877;51.436;6.774;2023-01-28T01:33:53;102432.56;;;1.19;86.04
13612;BME280;6877;51.436;6.774;2023-01-28T01:36:25;102430.81;;;1.18;86.26
13612;BME280;6877;51.436;6.774;2023-01-28T01:38:56;102433.41;;;1.18;86.01
13612;BME280;6877;51.436;6.774;2023-01-28T01:41:30;102441.94;;;1.16;85.84
13612;BME280;6877;51.436;6.774;2023-01-28T01:44:03;102446.34;;;1.19;85.92
13612;BME280;6877;51.436;6.774;2023-01-28T01:46:44;102443.56;;;1.14;85.46
13612;BME280;6877;51.436;6.774;2023-01-28T01:49:22;102455.50;;;1.12;85.25
13612;BME280;6877;51.436;6.774;2023-01-28T01:51:53;102457.13;;;1.10;85.30
13612;BME280;6877;51.436;6.774;2023-01-28T01:54:27;102451.75;;;1.06;84.86
13612;BME280;6877;51.436;6.774;2023-01-28T01:57:01;102458.44;;;1.02;84.99
13612;BME280;6877;51.436;6.774;2023-01-28T01:59:34;102458.44;;;1.02;85.24
13612;BME280;6877;51.436;6.774;2023-01-28T02:02:07;102455.00;;;1.02;84.26
13612;BME280;6877;51.436;6.774;2023-01-28T02:04:38;102459.13;;;0.98;84.56
13612;BME280;6877;51.436;6.774;2023-01-28T02:07:07;102461.31;;;0.90;84.23
13612;BME280;6877;51.436;6.774;2023-01-28T02:09:35;102458.59;;;0.87;84.39
13612;BME280;6877;51.436;6.774;2023-01-28T02:12:15;102463.69;;;0.86;84.16
13612;BME280;6877;51.436;6.774;2023-01-28T02:14:47;102463.59;;;0.84;84.23
13612;BME280;6877;51.436;6.774;2023-01-28T02:17:15;102466.13;;;0.83;83.89
13612;BME280;6877;51.436;6.774;2023-01-28T02:19:59;102467.72;;;0.81;83.90
13612;BME280;6877;51.436;6.774;2023-01-28T02:28:30;102467.56;;;0.78;83.46
13612;BME280;6877;51.436;6.774;2023-01-28T02:31:14;102466.59;;;0.76;83.47
13612;BME280;6877;51.436;6.774;2023-01-28T02:39:01;102461.19;;;0.69;83.17
13612;BME280;6877;51.436;6.774;2023-01-28T02:41:39;102472.22;;;0.67;83.50
13612;BME280;6877;51.436;6.774;2023-01-28T02:44:13;102473.91;;;0.66;83.39
13612;BME280;6877;51.436;6.774;2023-01-28T02:46:39;102473.91;;;0.66;83.11
13612;BME280;6877;51.436;6.774;2023-01-28T02:52:03;102471.97;;;0.62;82.99
13612;BME280;6877;51.436;6.774;2023-01-28T02:54:53;102466.75;;;0.61;83.12
13612;BME280;6877;51.436;6.774;2023-01-28T02:57:31;102471.03;;;0.60;82.68
13612;BME280;6877;51.436;6.774;2023-01-28T03:00:09;102469.34;;;0.61;82.69
13612;BME280;6877;51.436;6.774;2023-01-28T03:02:52;102468.34;;;0.59;82.25
13612;BME280;6877;51.436;6.774;2023-01-28T03:05:37;102464.91;;;0.58;81.95
13612;BME280;6877;51.436;6.774;2023-01-28T03:08:08;102461.34;;;0.56;82.18
13612;BME280;6877;51.436;6.774;2023-01-28T03:10:55;102456.19;;;0.56;82.23
13612;BME280;6877;51.436;6.774;2023-01-28T03:13:41;102457.09;;;0.57;82.32
13612;BME280;6877;51.436;6.774;2023-01-28T03:16:31;102452.84;;;0.57;82.23
13612;BME280;6877;51.436;6.774;2023-01-28T03:19:17;102459.59;;;0.55;82.22
13612;BME280;6877;51.436;6.774;2023-01-28T03:22:07;102457.84;;;0.54;82.57
13612;BME280;6877;51.436;6.774;2023-01-28T03:24:53;102450.13;;;0.54;82.42
13612;BME280;6877;51.436;6.774;2023-01-28T03:27:49;102456.06;;;0.53;82.24
13612;BME280;6877;51.436;6.774;2023-01-28T03:30:48;102449.13;;;0.52;82.20
13612;BME280;6877;51.436;6.774;2023-01-28T03:36:37;102452.53;;;0.51;82.51
13612;BME280;6877;51.436;6.774;2023-01-28T03:39:24;102454.13;;;0.49;82.82
13612;BME280;6877;51.436;6.774;2023-01-28T03:42:05;102452.53;;;0.51;83.13
13612;BME280;6877;51.436;6.774;2023-01-28T03:44:32;102456.81;;;0.51;83.02
13612;BME280;6877;51.436;6.774;2023-01-28T03:47:27;102457.69;;;0.51;82.90
13612;BME280;6877;51.436;6.774;2023-01-28T03:50:00;102459.53;;;0.54;82.67
13612;BME280;6877;51.436;6.774;2023-01-28T03:52:39;102462.91;;;0.53;82.36
13612;BME280;6877;51.436;6.774;2023-01-28T03:55:12;102474.09;;;0.53;82.44
13612;BME280;6877;51.436;6.774;2023-01-28T03:57:39;102463.00;;;0.54;82.30
13612;BME280;6877;51.436;6.774;2023-01-28T04:00:06;102467.28;;;0.54;82.61
13612;BME280;6877;51.436;6.774;2023-01-28T04:02:33;102463.00;;;0.54;81.79
13612;BME280;6877;51.436;6.774;2023-01-28T04:05:00;102464.75;;;0.55;81.88
13612;BME280;6877;51.436;6.774;2023-01-28T04:07:32;102467.31;;;0.55;81.72
13612;BME280;6877;51.436;6.774;2023-01-28T04:09:59;102468.94;;;0.53;81.70
13612;BME280;6877;51.436;6.774;2023-01-28T04:12:27;102468.16;;;0.54;81.50
13612;BME280;6877;51.436;6.774;2023-01-28T04:14:53;102474.19;;;0.55;81.48
13612;BME280;6877;51.436;6.774;2023-01-28T04:17:20;102478.44;;;0.54;81.23
13612;BME280;6877;51.436;6.774;2023-01-28T04:19:47;102472.41;;;0.54;80.74
13612;BME280;6877;51.436;6.774;2023-01-28T04:22:13;102476.66;;;0.53;80.63
13612;BME280;6877;51.436;6.774;2023-01-28T04:24:40;102485.22;;;0.52;81.13
13612;BME280;6877;51.436;6.774;2023-01-28T04:27:06;102479.34;;;0.55;80.76
13612;BME280;6877;51.436;6.774;2023-01-28T04:29:33;102482.78;;;0.55;80.69
13612;BME280;6877;51.436;6.774;2023-01-28T04:32:00;102485.38;;;0.55;80.45
13612;BME280;6877;51.436;6.774;2023-01-28T04:34:26;102488.91;;;0.57;79.39
13612;BME280;6877;51.436;6.774;2023-01-28T04:36:53;102490.50;;;0.55;79.06
13612;BME280;6877;51.436;6.774;2023-01-28T04:39:19;102486.97;;;0.53;78.99
13612;BME280;6877;51.436;6.774;2023-01-28T04:41:46;102495.50;;;0.52;79.31
13612;BME280;6877;51.436;6.774;2023-01-28T04:44:12;102486.75;;;0.49;79.12
13612;BME280;6877;51.436;6.774;2023-01-28T04:46:39;102486.75;;;0.49;79.05
13612;BME280;6877;51.436;6.774;2023-01-28T04:49:06;102481.50;;;0.47;79.05
13612;BME280;6877;51.436;6.774;2023-01-28T04:51:32;102485.00;;;0.48;78.17
13612;BME280;6877;51.436;6.774;2023-01-28T04:53:59;102487.56;;;0.48;78.12
13612;BME280;6877;51.436;6.774;2023-01-28T04:56:25;102478.16;;;0.48;78.41
13612;BME280;6877;51.436;6.774;2023-01-28T04:58:52;102476.34;;;0.47;77.67
13612;BME280;6877;51.436;6.774;2023-01-28T05:01:19;102482.56;;;0.51;77.13
13612;BME280;6877;51.436;6.774;2023-01-28T05:03:46;102475.47;;;0.46;77.10
13612;BME280;6877;51.436;6.774;2023-01-28T05:06:12;102479.75;;;0.46;77.18
13612;BME280;6877;51.436;6.774;2023-01-28T05:08:39;102474.44;;;0.43;76.70
13612;BME280;6877;51.436;6.774;2023-01-28T05:11:05;102471.72;;;0.40;76.78
13612;BME280;6877;51.436;6.774;2023-01-28T05:13:32;102474.28;;;0.40;76.01
13612;BME280;6877;51.436;6.774;2023-01-28T05:15:58;102476.69;;;0.37;76.62
13612;BME280;6877;51.436;6.774;2023-01-28T05:18:25;102473.41;;;0.39;76.37
13612;BME280;6877;51.436;6.774;2023-01-28T05:20:52;102468.97;;;0.37;76.49
13612;BME280;6877;51.436;6.774;2023-01-28T05:23:23;102474.13;;;0.37;76.90
13612;BME280;6877;51.436;6.774;2023-01-28T05:25:50;102479.13;;;0.34;77.18
13612;BME280;6877;51.436;6.774;2023-01-28T05:28:17;102477.38;;;0.33;76.72
13612;BME280;6877;51.436;6.774;2023-01-28T05:30:43;102485.97;;;0.33;76.96
13612;BME280;6877;51.436;6.774;2023-01-28T05:33:10;102483.59;;;0.38;76.54
13612;BME280;6877;51.436;6.774;2023-01-28T05:35:36;102484.38;;;0.35;76.51
13612;BME280;6877;51.436;6.774;2023-01-28T05:38:04;102485.91;;;0.32;76.81
13612;BME280;6877;51.436;6.774;2023-01-28T05:40:30;102493.78;;;0.35;76.85
13612;BME280;6877;51.436;6.774;2023-01-28T05:42:57;102486.84;;;0.34;77.29
13612;BME280;6877;51.436;6.774;2023-01-28T05:45:24;102487.66;;;0.33;77.22
13612;BME280;6877;51.436;6.774;2023-01-28T05:47:50;102492.72;;;0.31;76.88
13612;BME280;6877;51.436;6.774;2023-01-28T05:50:17;102504.72;;;0.31;76.76
13612;BME280;6877;51.436;6.774;2023-01-28T05:52:43;102513.41;;;0.33;76.33
13612;BME280;6877;51.436;6.774;2023-01-28T05:55:10;102513.25;;;0.30;76.37
13612;BME280;6877;51.436;6.774;2023-01-28T05:57:37;102510.59;;;0.28;76.75
13612;BME280;6877;51.436;6.774;2023-01-28T06:00:04;102510.69;;;0.30;76.56
13612;BME280;6877;51.436;6.774;2023-01-28T06:02:31;102510.75;;;0.31;75.98
13612;BME280;6877;51.436;6.774;2023-01-28T06:04:58;102506.34;;;0.29;75.99
13612;BME280;6877;51.436;6.774;2023-01-28T06:07:30;102507.06;;;0.26;75.95
13612;BME280;6877;51.436;6.774;2023-01-28T06:09:56;102502.69;;;0.25;76.16
13612;BME280;6877;51.436;6.774;2023-01-28T06:12:23;102510.38;;;0.23;76.07
13612;BME280;6877;51.436;6.774;2023-01-28T06:14:49;102512.94;;;0.23;76.33
13612;BME280;6877;51.436;6.774;2023-01-28T06:17:16;102519.84;;;0.25;76.38
13612;BME280;6877;51.436;6.774;2023-01-28T06:19:43;102516.50;;;0.26;76.34
13612;BME280;6877;51.436;6.774;2023-01-28T06:22:09;102515.69;;;0.27;75.79
13612;BME280;6877;51.436;6.774;2023-01-28T06:24:36;102506.91;;;0.23;76.06
13612;BME280;6877;51.436;6.774;2023-01-28T06:27:03;102509.38;;;0.21;75.86
13612;BME280;6877;51.436;6.774;2023-01-28T06:29:30;102518.75;;;0.19;76.63
13612;BME280;6877;51.436;6.774;2023-01-28T06:31:56;102519.63;;;0.20;76.65
13612;BME280;6877;51.436;6.774;2023-01-28T06:34:23;102518.75;;;0.19;76.18
13612;BME280;6877;51.436;6.774;2023-01-28T06:36:50;102521.31;;;0.19;76.12
13612;BME280;6877;51.436;6.774;2023-01-28T06:39:19;102517.69;;;0.16;75.86
13612;BME280;6877;51.436;6.774;2023-01-28T06:41:48;102521.88;;;0.14;76.07
13612;BME280;6877;51.436;6.774;2023-01-28T06:44:15;102516.63;;;0.12;76.41
13612;BME280;6877;51.436;6.774;2023-01-28T06:46:42;102517.53;;;0.13;76.46
13612;BME280;6877;51.436;6.774;2023-01-28T06:49:08;102503.59;;;0.09;76.16
13612;BME280;6877;51.436;6.774;2023-01-28T06:51:35;102503.44;;;0.06;76.58
13612;BME280;6877;51.436;6.774;2023-01-28T06:54:02;102506.09;;;0.08;76.98
13612;BME280;6877;51.436;6.774;2023-01-28T06:56:28;102511.25;;;0.08;76.32
13612;BME280;6877;51.436;6.774;2023-01-28T06:58:56;102513.56;;;0.03;76.84
13612;BME280;6877;51.436;6.774;2023-01-28T07:01:22;102518.72;;;0.03;76.47
13612;BME280;6877;51.436;6.774;2023-01-28T07:03:50;102521.22;;;0.02;77.13
13612;BME280;6877;51.436;6.774;2023-01-28T07:06:17;102525.66;;;0.04;77.10
13612;BME280;6877;51.436;6.774;2023-01-28T07:08:44;102524.84;;;0.05;77.39
13612;BME280;6877;51.436;6.774;2023-01-28T07:11:11;102529.19;;;0.06;77.38
13612;BME280;6877;51.436;6.774;2023-01-28T07:13:38;102538.75;;;0.09;77.67
13612;BME280;6877;51.436;6.774;2023-01-28T07:16:05;102532.72;;;0.08;77.20
13612;BME280;6877;51.436;6.774;2023-01-28T07:18:33;102534.31;;;0.06;76.56
13612;BME280;6877;51.436;6.774;2023-01-28T07:21:00;102528.28;;;0.06;76.62
13612;BME280;6877;51.436;6.774;2023-01-28T07:23:26;102531.69;;;0.05;76.86
13612;BME280;6877;51.436;6.774;2023-01-28T07:25:53;102529.00;;;0.03;76.58
13612;BME280;6877;51.436;6.774;2023-01-28T07:28:25;102523.88;;;0.03;76.30
13612;BME280;6877;51.436;6.774;2023-01-28T07:30:52;102522.28;;;0.05;76.28
13612;BME280;6877;51.436;6.774;2023-01-28T07:33:19;102525.66;;;0.04;76.59
13612;BME280;6877;51.436;6.774;2023-01-28T07:35:51;102525.66;;;0.04;75.62
13612;BME280;6877;51.436;6.774;2023-01-28T07:38:18;102526.31;;;0.00;76.42
13612;BME280;6877;51.436;6.774;2023-01-28T07:40:45;102523.56;;;-0.03;76.37
13612;BME280;6877;51.436;6.774;2023-01-28T07:43:11;102534.03;;;0.00;76.69
13612;BME280;6877;51.436;6.774;2023-01-28T07:45:38;102529.00;;;0.03;76.89
13612;BME280;6877;51.436;6.774;2023-01-28T07:48:06;102534.31;;;0.06;76.40
13612;BME280;6877;51.436;6.774;2023-01-28T07:50:35;102539.41;;;0.05;76.40
13612;BME280;6877;51.436;6.774;2023-01-28T07:53:04;102536.75;;;0.03;76.58
13612;BME280;6877;51.436;6.774;2023-01-28T07:55:34;102532.56;;;0.05;76.56
13612;BME280;6877;51.436;6.774;2023-01-28T07:58:03;102538.75;;;0.09;76.43
13612;BME280;6877;51.436;6.774;2023-01-28T08:00:32;102557.75;;;0.11;76.94
13612;BME280;6877;51.436;6.774;2023-01-28T08:03:01;102570.84;;;0.15;77.28
13612;BME280;6877;51.436;6.774;2023-01-28T08:05:48;102572.88;;;0.21;76.74
13612;BME280;6877;51.436;6.774;2023-01-28T08:08:16;102567.81;;;0.22;76.44
13612;BME280;6877;51.436;6.774;2023-01-28T08:10:44;102572.06;;;0.22;76.81
13612;BME280;6877;51.436;6.774;2023-01-28T08:13:16;102570.47;;;0.24;76.06
13612;BME280;6877;51.436;6.774;2023-01-28T08:15:44;102567.06;;;0.25;76.10
13612;BME280;6877;51.436;6.774;2023-01-28T08:18:16;102576.66;;;0.28;75.60
13612;BME280;6877;51.436;6.774;2023-01-28T08:20:43;102577.53;;;0.28;75.97
13612;BME280;6877;51.436;6.774;2023-01-28T08:23:16;102574.34;;;0.32;75.88
13612;BME280;6877;51.436;6.774;2023-01-28T08:25:46;102576.31;;;0.38;75.75
13612;BME280;6877;51.436;6.774;2023-01-28T08:28:15;102585.03;;;0.40;75.47
13612;BME280;6877;51.436;6.774;2023-01-28T08:30:42;102580.69;;;0.39;74.77
13612;BME280;6877;51.436;6.774;2023-01-28T08:33:11;102586.00;;;0.42;75.41
13612;BME280;6877;51.436;6.774;2023-01-28T08:35:38;102585.28;;;0.44;74.56
13612;BME280;6877;51.436;6.774;2023-01-28T08:38:06;102588.03;;;0.48;74.90
13612;BME280;6877;51.436;6.774;2023-01-28T08:40:34;102602.09;;;0.54;74.52
13612;BME280;6877;51.436;6.774;2023-01-28T08:43:00;102607.41;;;0.57;74.59
13612;BME280;6877;51.436;6.774;2023-01-28T08:45:27;102617.88;;;0.60;74.23
13612;BME280;6877;51.436;6.774;2023-01-28T08:50:24;102623.75;;;0.58;73.90
13612;BME280;6877;51.436;6.774;2023-01-28T08:52:56;102627.88;;;0.54;73.98
13612;BME280;6877;51.436;6.774;2023-01-28T08:55:24;102633.19;;;0.57;73.69
13612;BME280;6877;51.436;6.774;2023-01-28T08:57:51;102641.69;;;0.56;73.46
13612;BME280;6877;51.436;6.774;2023-01-28T09:00:18;102636.53;;;0.56;73.33
13612;BME280;6877;51.436;6.774;2023-01-28T09:02:46;102646.13;;;0.59;73.45
13612;BME280;6877;51.436;6.774;2023-01-28T09:05:13;102641.06;;;0.60;72.92
13612;BME280;6877;51.436;6.774;2023-01-28T09:07:40;102641.84;;;0.59;72.58
13612;BME280;6877;51.436;6.774;2023-01-28T09:10:08;102647.72;;;0.57;72.59
13612;BME280;6877;51.436;6.774;2023-01-28T09:12:39;102660.72;;;0.58;73.01
13612;BME280;6877;51.436;6.774;2023-01-28T09:15:07;102662.63;;;0.62;72.72
13612;BME280;6877;51.436;6.774;2023-01-28T09:17:34;102664.25;;;0.60;72.31
13612;BME280;6877;51.436;6.774;2023-01-28T09:20:00;102660.72;;;0.58;72.57
13612;BME280;6877;51.436;6.774;2023-01-28T09:22:27;102648.97;;;0.63;72.61
13612;BME280;6877;51.436;6.774;2023-01-28T09:24:59;102655.88;;;0.64;72.13
13612;BME280;6877;51.436;6.774;2023-01-28T09:27:25;102663.59;;;0.64;72.54
13612;BME280;6877;51.436;6.774;2023-01-28T09:29:57;102679.47;;;0.72;72.36
13612;BME280;6877;51.436;6.774;2023-01-28T09:32:24;102665.84;;;0.75;71.79
13612;BME280;6877;51.436;6.774;2023-01-28T09:34:50;102674.72;;;0.80;71.59
13612;BME280;6877;51.436;6.774;2023-01-28T09:37:17;102674.88;;;0.83;71.63
13612;BME280;6877;51.436;6.774;2023-01-28T09:39:49;102672.47;;;0.86;71.31
13612;BME280;6877;51.436;6.774;2023-01-28T09:42:30;102684.03;;;0.94;71.21
13612;BME280;6877;51.436;6.774;2023-01-28T09:48:02;102681.78;;;1.00;70.48
13612;BME280;6877;51.436;6.774;2023-01-28T09:50:33;102676.94;;;1.06;70.18
13612;BME280;6877;51.436;6.774;2023-01-28T09:53:15;102674.31;;;1.05;69.50
13612;BME280;6877;51.436;6.774;2023-01-28T09:56:05;102671.00;;;1.07;69.53
13612;BME280;6877;51.436;6.774;2023-01-28T09:58:40;102674.78;;;1.14;68.73
13612;BME280;6877;51.436;6.774;2023-01-28T10:04:09;102663.75;;;1.34;68.58
13612;BME280;6877;51.436;6.774;2023-01-28T10:07:05;102666.88;;;1.81;67.80
13612;BME280;6877;51.436;6.774;2023-01-28T10:10:04;102674.09;;;2.24;65.82
13612;BME280;6877;51.436;6.774;2023-01-28T10:15:45;102668.84;;;4.27;59.34
13612;BME280;6877;51.436;6.774;2023-01-28T10:21:30;102643.78;;;3.39;59.95
13612;BME280;6877;51.436;6.774;2023-01-28T10:26:39;102649.47;;;2.51;61.95
13612;BME280;6877;51.436;6.774;2023-01-28T10:31:59;102649.88;;;2.61;62.42
13612;BME280;6877;51.436;6.774;2023-01-28T10:34:36;102653.72;;;2.49;62.69
13612;BME280;6877;51.436;6.774;2023-01-28T10:37:02;102652.06;;;2.32;62.74
13612;BME280;6877;51.436;6.774;2023-01-28T10:39:29;102661.91;;;2.03;64.36
13612;BME280;6877;51.436;6.774;2023-01-28T10:41:58;102666.25;;;2.04;64.66
13612;BME280;6877;51.436;6.774;2023-01-28T10:44:31;102652.91;;;1.95;64.62
13612;BME280;6877;51.436;6.774;2023-01-28T10:47:27;102665.38;;;2.04;64.98
13612;BME280;6877;51.436;6.774;2023-01-28T10:49:59;102663.97;;;2.11;64.75
13612;BME280;6877;51.436;6.774;2023-01-28T10:52:31;102671.06;;;1.79;65.65
13612;BME280;6877;51.436;6.774;2023-01-28T10:55:03;102663.41;;;1.62;66.43
13612;BME280;6877;51.436;6.774;2023-01-28T10:57:40;102663.78;;;1.52;66.69
13612;BME280;6877;51.436;6.774;2023-01-28T11:00:22;102678.28;;;1.50;67.90
13612;BME280;6877;51.436;6.774;2023-01-28T11:02:50;102684.13;;;1.46;67.69
13612;BME280;6877;51.436;6.774;2023-01-28T11:05:24;102674.94;;;1.17;67.85
13612;BME280;6877;51.436;6.774;2023-01-28T11:08:13;102681.78;;;1.00;68.43
13612;BME280;6877;51.436;6.774;2023-01-28T11:10:41;102677.84;;;0.90;68.82
13612;BME280;6877;51.436;6.774;2023-01-28T11:15:54;102700.16;;;0.90;68.72
13612;BME280;6877;51.436;6.774;2023-01-28T11:18:37;102696.53;;;0.86;69.04
13612;BME280;6877;51.436;6.774;2023-01-28T11:21:15;102694.53;;;0.81;69.05
13612;BME280;6877;51.436;6.774;2023-01-28T11:23:50;102687.78;;;0.83;69.63
13612;BME280;6877;51.436;6.774;2023-01-28T11:26:43;102686.47;;;0.91;69.51
13612;BME280;6877;51.436;6.774;2023-01-28T11:29:34;102681.59;;;1.13;68.68
13612;BME280;6877;51.436;6.774;2023-01-28T11:32:18;102672.72;;;1.25;67.72
13612;BME280;6877;51.436;6.774;2023-01-28T11:34:53;102673.28;;;1.19;67.40
13612;BME280;6877;51.436;6.774;2023-01-28T11:37:27;102670.38;;;1.29;67.29
13612;BME280;6877;51.436;6.774;2023-01-28T11:40:23;102671.84;;;1.24;67.00
13612;BME280;6877;51.436;6.774;2023-01-28T11:42:54;102667.91;;;1.14;67.17
13612;BME280;6877;51.436;6.774;2023-01-28T11:48:40;102671.94;;;1.09;67.63
13612;BME280;6877;51.436;6.774;2023-01-28T11:57:13;102668.09;;;1.01;68.38
13612;BME280;6877;51.436;6.774;2023-01-28T12:00:03;102661.97;;;0.99;67.91
13612;BME280;6877;51.436;6.774;2023-01-28T12:08:32;102633.66;;;1.17;67.64
13612;BME280;6877;51.436;6.774;2023-01-28T12:11:22;102637.59;;;1.27;67.19
13612;BME280;6877;51.436;6.774;2023-01-28T12:14:38;102622.59;;;1.20;66.92
13612;BME280;6877;51.436;6.774;2023-01-28T12:17:32;102629.25;;;1.32;67.07
13612;BME280;6877;51.436;6.774;2023-01-28T12:20:18;102615.47;;;1.32;66.22
13612;BME280;6877;51.436;6.774;2023-01-28T12:23:13;102617.03;;;1.46;65.92
13612;BME280;6877;51.436;6.774;2023-01-28T12:45:26;102534.63;;;1.49;64.24
13612;BME280;6877;51.436;6.774;2023-01-28T12:48:33;102531.06;;;1.47;64.64
13612;BME280;6877;51.436;6.774;2023-01-28T12:51:24;102522.41;;;1.45;64.57
13612;BME280;6877;51.436;6.774;2023-01-28T12:54:43;102531.09;;;1.29;65.12
13612;BME280;6877;51.436;6.774;2023-01-28T12:57:26;102530.63;;;1.38;65.53
13612;BME280;6877;51.436;6.774;2023-01-28T13:00:02;102536.22;;;1.47;65.28
13612;BME280;6877;51.436;6.774;2023-01-28T13:05:43;102567.78;;;1.24;65.02
13612;BME280;6877;51.436;6.774;2023-01-28T13:08:16;102572.41;;;0.95;65.55
13612;BME280;6877;51.436;6.774;2023-01-28T13:10:46;102579.06;;;0.74;66.36
13612;BME280;6877;51.436;6.774;2023-01-28T13:13:32;102581.97;;;0.63;66.88
13612;BME280;6877;51.436;6.774;2023-01-28T13:16:00;102567.63;;;0.52;67.21
13612;BME280;6877;51.436;6.774;2023-01-28T13:21:02;102569.69;;;0.41;68.28
13612;BME280;6877;51.436;6.774;2023-01-28T13:28:50;102573.50;;;0.82;66.89
13612;BME280;6877;51.436;6.774;2023-01-28T13:31:21;102577.56;;;0.95;67.00
13612;BME280;6877;51.436;6.774;2023-01-28T13:36:43;102581.63;;;1.26;66.03
13612;BME280;6877;51.436;6.774;2023-01-28T13:39:25;102584.03;;;1.39;65.53
13612;BME280;6877;51.436;6.774;2023-01-28T13:44:37;102563.72;;;1.29;65.31
13612;BME280;6877;51.436;6.774;2023-01-28T13:49:43;102580.47;;;1.37;65.65
13612;BME280;6877;51.436;6.774;2023-01-28T13:52:16;102582.53;;;1.44;65.22
13612;BME280;6877;51.436;6.774;2023-01-28T13:54:56;102581.06;;;1.49;64.97
13612;BME280;6877;51.436;6.774;2023-01-28T14:00:26;102584.31;;;1.45;64.98
13612;BME280;6877;51.436;6.774;2023-01-28T14:03:19;102589.75;;;1.51;64.57
13612;BME280;6877;51.436;6.774;2023-01-28T14:19:56;102556.38;;;1.36;65.43
13612;BME280;6877;51.436;6.774;2023-01-28T14:22:24;102546.59;;;1.29;65.58
13612;BME280;6877;51.436;6.774;2023-01-28T14:24:51;102542.44;;;1.15;65.95
13612;BME280;6877;51.436;6.774;2023-01-28T14:27:26;102524.47;;;0.99;66.36
13612;BME280;6877;51.436;6.774;2023-01-28T14:32:47;102527.97;;;0.83;67.08
13612;BME280;6877;51.436;6.774;2023-01-28T14:35:23;102521.53;;;0.75;67.10
13612;BME280;6877;51.436;6.774;2023-01-28T14:37:53;102518.50;;;0.65;67.50
13612;BME280;6877;51.436;6.774;2023-01-28T14:40:20;102516.75;;;0.64;67.34
13612;BME280;6877;51.436;6.774;2023-01-28T14:42:49;102521.75;;;0.61;67.71
13612;BME280;6877;51.436;6.774;2023-01-28T14:48:40;102513.13;;;0.61;67.98
13612;BME280;6877;51.436;6.774;2023-01-28T14:57:46;102526.25;;;0.49;68.08
13612;BME280;6877;51.436;6.774;2023-01-28T14:59:56;102530.94;;;0.40;68.32
13612;BME280;6877;51.436;6.774;2023-01-28T15:02:26;102527.09;;;0.32;68.42
13612;BME280;6877;51.436;6.774;2023-01-28T15:04:53;102537.97;;;0.26;69.05
13612;BME280;6877;51.436;6.774;2023-01-28T15:07:25;102543.69;;;0.20;69.08
13612;BME280;6877;51.436;6.774;2023-01-28T15:10:06;102550.25;;;0.15;69.06
13612;BME280;6877;51.436;6.774;2023-01-28T15:12:46;102545.59;;;0.08;69.51
13612;BME280;6877;51.436;6.774;2023-01-28T15:17:47;102552.84;;;-0.01;70.18
13612;BME280;6877;51.436;6.774;2023-01-28T15:20:17;102551.47;;;-0.11;70.01
13612;BME280;6877;51.436;6.774;2023-01-28T15:22:45;102556.03;;;-0.21;70.48
13612;BME280;6877;51.436;6.774;2023-01-28T15:25:20;102556.25;;;-0.33;70.90
13612;BME280;6877;51.436;6.774;2023-01-28T15:27:49;102562.63;;;-0.41;71.47
13612;BME280;6877;51.436;6.774;2023-01-28T15:30:26;102569.31;;;-0.45;71.76
13612;BME280;6877;51.436;6.774;2023-01-28T15:33:12;102579.19;;;-0.53;72.46
13612;BME280;6877;51.436;6.774;2023-01-28T15:35:47;102582.28;;;-0.58;73.02
13612;BME280;6877;51.436;6.774;2023-01-28T15:38:15;102583.09;;;-0.59;73.24
13612;BME280;6877;51.436;6.774;2023-01-28T15:40:57;102591.34;;;-0.65;73.53
13612;BME280;6877;51.436;6.774;2023-01-28T15:43:46;102595.91;;;-0.76;74.02